sensor_id;sensor_type;location;lat;lon;timestamp;P1;durP1;ratioP1;P2;durP2;ratioP2
3311;SDS011;1668;49.648;8.570;2023-09-30T00:01:08;8.00;;;3.40;;
3311;SDS011;1668;49.648;8.570;2023-09-30T00:03:35;6.80;;;3.50;;
3311;SDS011;1668;49.648;8.570;2023-09-30T00:06:02;6.33;;;3.17;;
3311;SDS011;1668;49.648;8.570;2023-09-30T00:08:29;7.83;;;2.73;;
3311;SDS011;1668;49.648;8.570;2023-09-30T00:10:57;7.53;;;2.80;;
3311;SDS011;1668;49.648;8.570;2023-09-30T00:13:26;5.30;;;3.00;;
3311;SDS011;1668;49.648;8.570;2023-09-30T00:15:53;6.13;;;2.90;;
3311;SDS011;1668;49.648;8.570;2023-09-30T00:18:20;5.07;;;2.97;;
3311;SDS011;1668;49.648;8.570;2023-09-30T00:20:47;6.70;;;3.30;;
3311;SDS011;1668;49.648;8.570;2023-09-30T00:23:13;7.53;;;3.17;;
3311;SDS011;1668;49.648;8.570;2023-09-30T00:25:40;5.73;;;2.80;;
3311;SDS011;1668;49.648;8.570;2023-09-30T00:28:07;7.53;;;2.97;;
3311;SDS011;1668;49.648;8.570;2023-09-30T00:30:36;9.27;;;3.50;;
3311;SDS011;1668;49.648;8.570;2023-09-30T00:33:03;4.83;;;2.73;;
3311;SDS011;1668;49.648;8.570;2023-09-30T00:35:31;8.20;;;2.67;;
3311;SDS011;1668;49.648;8.570;2023-09-30T00:37:58;5.23;;;2.97;;
3311;SDS011;1668;49.648;8.570;2023-09-30T00:40:25;6.80;;;2.80;;
3311;SDS011;1668;49.648;8.570;2023-09-30T00:42:52;5.83;;;3.03;;
3311;SDS011;1668;49.648;8.570;2023-09-30T00:45:19;5.93;;;2.83;;
3311;SDS011;1668;49.648;8.570;2023-09-30T00:47:47;5.40;;;3.03;;
3311;SDS011;1668;49.648;8.570;2023-09-30T00:50:14;4.37;;;2.57;;
3311;SDS011;1668;49.648;8.570;2023-09-30T00:52:42;5.33;;;2.43;;
3311;SDS011;1668;49.648;8.570;2023-09-30T00:55:11;5.10;;;3.13;;
3311;SDS011;1668;49.648;8.570;2023-09-30T00:57:39;4.87;;;3.20;;
3311;SDS011;1668;49.648;8.570;2023-09-30T01:00:06;5.23;;;2.83;;
3311;SDS011;1668;49.648;8.570;2023-09-30T01:02:37;4.67;;;3.37;;
3311;SDS011;1668;49.648;8.570;2023-09-30T01:05:06;7.27;;;2.80;;
3311;SDS011;1668;49.648;8.570;2023-09-30T01:07:33;5.00;;;3.07;;
3311;SDS011;1668;49.648;8.570;2023-09-30T01:10:00;6.67;;;3.17;;
3311;SDS011;1668;49.648;8.570;2023-09-30T01:12:28;8.67;;;3.20;;
3311;SDS011;1668;49.648;8.570;2023-09-30T01:14:57;5.40;;;3.13;;
3311;SDS011;1668;49.648;8.570;2023-09-30T01:17:24;8.03;;;3.60;;
3311;SDS011;1668;49.648;8.570;2023-09-30T01:19:51;6.03;;;3.40;;
3311;SDS011;1668;49.648;8.570;2023-09-30T01:22:19;7.53;;;3.20;;
3311;SDS011;1668;49.648;8.570;2023-09-30T01:24:46;6.80;;;3.27;;
3311;SDS011;1668;49.648;8.570;2023-09-30T01:27:13;7.40;;;3.30;;
3311;SDS011;1668;49.648;8.570;2023-09-30T01:29:43;6.33;;;3.40;;
3311;SDS011;1668;49.648;8.570;2023-09-30T01:32:10;7.40;;;4.03;;
3311;SDS011;1668;49.648;8.570;2023-09-30T01:34:38;6.70;;;3.67;;
3311;SDS011;1668;49.648;8.570;2023-09-30T01:37:05;14.80;;;4.07;;
3311;SDS011;1668;49.648;8.570;2023-09-30T01:39:34;7.80;;;3.20;;
3311;SDS011;1668;49.648;8.570;2023-09-30T01:42:01;6.40;;;3.00;;
3311;SDS011;1668;49.648;8.570;2023-09-30T01:44:28;5.53;;;3.67;;
3311;SDS011;1668;49.648;8.570;2023-09-30T01:46:55;5.10;;;3.10;;
3311;SDS011;1668;49.648;8.570;2023-09-30T01:49:22;5.73;;;3.43;;
3311;SDS011;1668;49.648;8.570;2023-09-30T01:51:51;6.30;;;3.33;;
3311;SDS011;1668;49.648;8.570;2023-09-30T01:54:18;6.13;;;3.43;;
3311;SDS011;1668;49.648;8.570;2023-09-30T01:56:46;6.83;;;3.40;;
3311;SDS011;1668;49.648;8.570;2023-09-30T01:59:15;8.10;;;3.87;;
3311;SDS011;1668;49.648;8.570;2023-09-30T02:01:41;8.37;;;3.97;;
3311;SDS011;1668;49.648;8.570;2023-09-30T02:04:08;6.67;;;3.50;;
3311;SDS011;1668;49.648;8.570;2023-09-30T02:06:35;7.40;;;3.70;;
3311;SDS011;1668;49.648;8.570;2023-09-30T02:09:02;7.20;;;3.87;;
3311;SDS011;1668;49.648;8.570;2023-09-30T02:11:33;6.00;;;3.73;;
3311;SDS011;1668;49.648;8.570;2023-09-30T02:14:03;7.77;;;3.73;;
3311;SDS011;1668;49.648;8.570;2023-09-30T02:16:31;7.80;;;3.67;;
3311;SDS011;1668;49.648;8.570;2023-09-30T02:18:57;5.50;;;3.50;;
3311;SDS011;1668;49.648;8.570;2023-09-30T02:21:24;7.30;;;3.27;;
3311;SDS011;1668;49.648;8.570;2023-09-30T02:23:53;7.13;;;3.07;;
3311;SDS011;1668;49.648;8.570;2023-09-30T02:26:21;8.00;;;4.23;;
3311;SDS011;1668;49.648;8.570;2023-09-30T02:28:50;5.27;;;3.03;;
3311;SDS011;1668;49.648;8.570;2023-09-30T02:31:18;6.63;;;3.10;;
3311;SDS011;1668;49.648;8.570;2023-09-30T02:33:45;6.47;;;3.50;;
3311;SDS011;1668;49.648;8.570;2023-09-30T02:36:12;8.80;;;3.43;;
3311;SDS011;1668;49.648;8.570;2023-09-30T02:38:39;6.73;;;3.70;;
3311;SDS011;1668;49.648;8.570;2023-09-30T02:41:06;8.67;;;3.30;;
3311;SDS011;1668;49.648;8.570;2023-09-30T02:43:33;8.60;;;3.30;;
3311;SDS011;1668;49.648;8.570;2023-09-30T02:46:00;9.93;;;4.20;;
3311;SDS011;1668;49.648;8.570;2023-09-30T02:48:28;9.07;;;3.40;;
3311;SDS011;1668;49.648;8.570;2023-09-30T02:50:56;6.07;;;3.70;;
3311;SDS011;1668;49.648;8.570;2023-09-30T02:53:23;5.60;;;2.93;;
3311;SDS011;1668;49.648;8.570;2023-09-30T02:55:50;5.10;;;2.90;;
3311;SDS011;1668;49.648;8.570;2023-09-30T02:58:21;6.13;;;3.33;;
3311;SDS011;1668;49.648;8.570;2023-09-30T03:00:48;7.33;;;3.53;;
3311;SDS011;1668;49.648;8.570;2023-09-30T03:03:15;7.63;;;3.10;;
3311;SDS011;1668;49.648;8.570;2023-09-30T03:05:44;8.67;;;3.57;;
3311;SDS011;1668;49.648;8.570;2023-09-30T03:08:12;7.13;;;4.00;;
3311;SDS011;1668;49.648;8.570;2023-09-30T03:10:39;6.47;;;2.80;;
3311;SDS011;1668;49.648;8.570;2023-09-30T03:13:06;8.67;;;3.47;;
3311;SDS011;1668;49.648;8.570;2023-09-30T03:15:34;6.57;;;3.80;;
3311;SDS011;1668;49.648;8.570;2023-09-30T03:18:01;13.23;;;4.90;;
3311;SDS011;1668;49.648;8.570;2023-09-30T03:20:28;7.13;;;4.40;;
3311;SDS011;1668;49.648;8.570;2023-09-30T03:22:57;7.53;;;4.67;;
3311;SDS011;1668;49.648;8.570;2023-09-30T03:25:25;9.30;;;4.57;;
3311;SDS011;1668;49.648;8.570;2023-09-30T03:27:52;8.23;;;4.63;;
3311;SDS011;1668;49.648;8.570;2023-09-30T03:30:19;8.37;;;4.67;;
3311;SDS011;1668;49.648;8.570;2023-09-30T03:32:46;11.20;;;4.90;;
3311;SDS011;1668;49.648;8.570;2023-09-30T03:35:13;9.90;;;4.93;;
3311;SDS011;1668;49.648;8.570;2023-09-30T03:37:42;9.37;;;4.80;;
3311;SDS011;1668;49.648;8.570;2023-09-30T03:40:11;14.43;;;4.23;;
3311;SDS011;1668;49.648;8.570;2023-09-30T03:42:39;9.77;;;4.90;;
3311;SDS011;1668;49.648;8.570;2023-09-30T03:45:08;11.23;;;4.70;;
3311;SDS011;1668;49.648;8.570;2023-09-30T03:47:35;13.83;;;5.00;;
3311;SDS011;1668;49.648;8.570;2023-09-30T03:50:03;7.93;;;4.20;;
3311;SDS011;1668;49.648;8.570;2023-09-30T03:52:32;6.83;;;4.40;;
3311;SDS011;1668;49.648;8.570;2023-09-30T03:55:00;6.47;;;4.60;;
3311;SDS011;1668;49.648;8.570;2023-09-30T03:57:31;8.80;;;4.73;;
3311;SDS011;1668;49.648;8.570;2023-09-30T03:59:58;7.50;;;4.73;;
3311;SDS011;1668;49.648;8.570;2023-09-30T04:02:25;7.27;;;4.33;;
3311;SDS011;1668;49.648;8.570;2023-09-30T04:04:52;14.93;;;4.40;;
3311;SDS011;1668;49.648;8.570;2023-09-30T04:07:21;8.73;;;4.80;;
3311;SDS011;1668;49.648;8.570;2023-09-30T04:09:48;11.37;;;5.70;;
3311;SDS011;1668;49.648;8.570;2023-09-30T04:12:15;9.17;;;5.33;;
3311;SDS011;1668;49.648;8.570;2023-09-30T04:14:43;7.37;;;4.43;;
3311;SDS011;1668;49.648;8.570;2023-09-30T04:17:10;14.53;;;5.27;;
3311;SDS011;1668;49.648;8.570;2023-09-30T04:19:37;9.40;;;5.40;;
3311;SDS011;1668;49.648;8.570;2023-09-30T04:22:03;7.60;;;4.33;;
3311;SDS011;1668;49.648;8.570;2023-09-30T04:24:30;11.97;;;4.70;;
3311;SDS011;1668;49.648;8.570;2023-09-30T04:26:57;8.57;;;5.00;;
3311;SDS011;1668;49.648;8.570;2023-09-30T04:29:28;11.27;;;5.33;;
3311;SDS011;1668;49.648;8.570;2023-09-30T04:31:56;7.20;;;5.13;;
3311;SDS011;1668;49.648;8.570;2023-09-30T04:34:23;11.70;;;4.70;;
3311;SDS011;1668;49.648;8.570;2023-09-30T04:36:52;9.43;;;5.17;;
3311;SDS011;1668;49.648;8.570;2023-09-30T04:39:19;11.50;;;5.40;;
3311;SDS011;1668;49.648;8.570;2023-09-30T04:41:46;9.23;;;5.10;;
3311;SDS011;1668;49.648;8.570;2023-09-30T04:44:13;10.33;;;5.30;;
3311;SDS011;1668;49.648;8.570;2023-09-30T04:46:40;9.07;;;5.63;;
3311;SDS011;1668;49.648;8.570;2023-09-30T04:49:12;11.40;;;4.90;;
3311;SDS011;1668;49.648;8.570;2023-09-30T04:51:40;10.77;;;4.90;;
3311;SDS011;1668;49.648;8.570;2023-09-30T04:54:07;10.23;;;4.70;;
3311;SDS011;1668;49.648;8.570;2023-09-30T04:56:35;10.53;;;4.67;;
3311;SDS011;1668;49.648;8.570;2023-09-30T04:59:03;15.33;;;5.80;;
3311;SDS011;1668;49.648;8.570;2023-09-30T05:01:30;7.50;;;3.93;;
3311;SDS011;1668;49.648;8.570;2023-09-30T05:03:57;9.37;;;4.63;;
3311;SDS011;1668;49.648;8.570;2023-09-30T05:06:25;9.73;;;4.50;;
3311;SDS011;1668;49.648;8.570;2023-09-30T05:08:52;7.37;;;4.30;;
3311;SDS011;1668;49.648;8.570;2023-09-30T05:11:20;15.30;;;6.33;;
3311;SDS011;1668;49.648;8.570;2023-09-30T05:13:47;7.30;;;4.70;;
3311;SDS011;1668;49.648;8.570;2023-09-30T05:16:14;10.60;;;4.90;;
3311;SDS011;1668;49.648;8.570;2023-09-30T05:18:41;6.27;;;4.30;;
3311;SDS011;1668;49.648;8.570;2023-09-30T05:21:08;12.90;;;4.77;;
3311;SDS011;1668;49.648;8.570;2023-09-30T05:23:36;9.30;;;4.60;;
3311;SDS011;1668;49.648;8.570;2023-09-30T05:26:03;11.30;;;4.70;;
3311;SDS011;1668;49.648;8.570;2023-09-30T05:28:31;8.80;;;4.60;;
3311;SDS011;1668;49.648;8.570;2023-09-30T05:30:58;12.97;;;4.50;;
3311;SDS011;1668;49.648;8.570;2023-09-30T05:33:25;8.80;;;4.57;;
3311;SDS011;1668;49.648;8.570;2023-09-30T05:35:53;8.10;;;4.50;;
3311;SDS011;1668;49.648;8.570;2023-09-30T05:38:20;11.03;;;4.80;;
3311;SDS011;1668;49.648;8.570;2023-09-30T05:40:49;8.60;;;5.03;;
3311;SDS011;1668;49.648;8.570;2023-09-30T05:43:16;13.10;;;4.83;;
3311;SDS011;1668;49.648;8.570;2023-09-30T05:45:44;11.87;;;5.00;;
3311;SDS011;1668;49.648;8.570;2023-09-30T05:48:14;10.40;;;5.00;;
3311;SDS011;1668;49.648;8.570;2023-09-30T05:50:41;8.23;;;4.50;;
3311;SDS011;1668;49.648;8.570;2023-09-30T05:53:08;10.37;;;4.87;;
3311;SDS011;1668;49.648;8.570;2023-09-30T05:55:40;10.10;;;5.20;;
3311;SDS011;1668;49.648;8.570;2023-09-30T05:58:09;12.47;;;5.90;;
3311;SDS011;1668;49.648;8.570;2023-09-30T06:00:39;12.43;;;4.80;;
3311;SDS011;1668;49.648;8.570;2023-09-30T06:03:07;8.50;;;4.90;;
3311;SDS011;1668;49.648;8.570;2023-09-30T06:05:38;11.63;;;5.27;;
3311;SDS011;1668;49.648;8.570;2023-09-30T06:08:07;10.10;;;4.83;;
3311;SDS011;1668;49.648;8.570;2023-09-30T06:10:35;12.80;;;5.13;;
3311;SDS011;1668;49.648;8.570;2023-09-30T06:13:04;9.30;;;4.97;;
3311;SDS011;1668;49.648;8.570;2023-09-30T06:15:32;10.60;;;4.60;;
3311;SDS011;1668;49.648;8.570;2023-09-30T06:17:59;10.57;;;5.30;;
3311;SDS011;1668;49.648;8.570;2023-09-30T06:20:26;8.63;;;5.20;;
3311;SDS011;1668;49.648;8.570;2023-09-30T06:22:55;11.47;;;5.40;;
3311;SDS011;1668;49.648;8.570;2023-09-30T06:25:23;7.90;;;5.40;;
3311;SDS011;1668;49.648;8.570;2023-09-30T06:27:50;13.03;;;5.13;;
3311;SDS011;1668;49.648;8.570;2023-09-30T06:30:17;11.00;;;5.57;;
3311;SDS011;1668;49.648;8.570;2023-09-30T06:32:46;10.20;;;4.53;;
3311;SDS011;1668;49.648;8.570;2023-09-30T06:35:13;12.20;;;5.37;;
3311;SDS011;1668;49.648;8.570;2023-09-30T06:37:40;10.63;;;5.20;;
3311;SDS011;1668;49.648;8.570;2023-09-30T06:40:10;11.60;;;5.20;;
3311;SDS011;1668;49.648;8.570;2023-09-30T06:42:37;11.50;;;5.30;;
3311;SDS011;1668;49.648;8.570;2023-09-30T06:45:06;16.60;;;5.33;;
3311;SDS011;1668;49.648;8.570;2023-09-30T06:47:35;8.90;;;4.90;;
3311;SDS011;1668;49.648;8.570;2023-09-30T06:50:04;12.23;;;5.87;;
3311;SDS011;1668;49.648;8.570;2023-09-30T06:52:34;12.53;;;4.67;;
3311;SDS011;1668;49.648;8.570;2023-09-30T06:55:02;10.90;;;4.77;;
3311;SDS011;1668;49.648;8.570;2023-09-30T06:57:30;10.97;;;5.37;;
3311;SDS011;1668;49.648;8.570;2023-09-30T06:59:58;9.03;;;4.33;;
3311;SDS011;1668;49.648;8.570;2023-09-30T07:02:25;14.37;;;4.63;;
3311;SDS011;1668;49.648;8.570;2023-09-30T07:04:53;13.00;;;4.47;;
3311;SDS011;1668;49.648;8.570;2023-09-30T07:07:21;9.73;;;4.40;;
3311;SDS011;1668;49.648;8.570;2023-09-30T07:09:48;14.87;;;5.00;;
3311;SDS011;1668;49.648;8.570;2023-09-30T07:12:14;14.00;;;4.50;;
3311;SDS011;1668;49.648;8.570;2023-09-30T07:14:41;8.63;;;4.60;;
3311;SDS011;1668;49.648;8.570;2023-09-30T07:17:08;10.97;;;4.70;;
3311;SDS011;1668;49.648;8.570;2023-09-30T07:19:35;13.00;;;4.20;;
3311;SDS011;1668;49.648;8.570;2023-09-30T07:22:03;11.83;;;4.07;;
3311;SDS011;1668;49.648;8.570;2023-09-30T07:24:31;11.93;;;4.00;;
3311;SDS011;1668;49.648;8.570;2023-09-30T07:26:58;9.80;;;4.60;;
3311;SDS011;1668;49.648;8.570;2023-09-30T07:29:25;8.47;;;3.77;;
3311;SDS011;1668;49.648;8.570;2023-09-30T07:31:52;8.60;;;4.23;;
3311;SDS011;1668;49.648;8.570;2023-09-30T07:34:19;8.00;;;4.47;;
3311;SDS011;1668;49.648;8.570;2023-09-30T07:36:46;10.17;;;3.80;;
3311;SDS011;1668;49.648;8.570;2023-09-30T07:39:13;9.67;;;4.07;;
3311;SDS011;1668;49.648;8.570;2023-09-30T07:41:41;14.17;;;4.37;;
3311;SDS011;1668;49.648;8.570;2023-09-30T07:44:08;8.83;;;4.17;;
3311;SDS011;1668;49.648;8.570;2023-09-30T07:46:35;6.07;;;3.37;;
3311;SDS011;1668;49.648;8.570;2023-09-30T07:49:02;14.87;;;4.50;;
3311;SDS011;1668;49.648;8.570;2023-09-30T07:51:30;11.03;;;3.80;;
3311;SDS011;1668;49.648;8.570;2023-09-30T07:53:56;11.07;;;4.00;;
3311;SDS011;1668;49.648;8.570;2023-09-30T07:56:22;8.77;;;3.80;;
3311;SDS011;1668;49.648;8.570;2023-09-30T07:58:51;14.40;;;4.60;;
3311;SDS011;1668;49.648;8.570;2023-09-30T08:01:18;11.97;;;4.10;;
3311;SDS011;1668;49.648;8.570;2023-09-30T08:03:45;7.47;;;4.20;;
3311;SDS011;1668;49.648;8.570;2023-09-30T08:06:12;8.93;;;4.23;;
3311;SDS011;1668;49.648;8.570;2023-09-30T08:08:38;10.27;;;4.07;;
3311;SDS011;1668;49.648;8.570;2023-09-30T08:11:05;13.07;;;4.43;;
3311;SDS011;1668;49.648;8.570;2023-09-30T08:13:32;10.87;;;4.10;;
3311;SDS011;1668;49.648;8.570;2023-09-30T08:16:01;14.33;;;4.17;;
3311;SDS011;1668;49.648;8.570;2023-09-30T08:18:28;11.70;;;4.07;;
3311;SDS011;1668;49.648;8.570;2023-09-30T08:20:54;12.20;;;5.20;;
3311;SDS011;1668;49.648;8.570;2023-09-30T08:23:21;12.67;;;3.97;;
3311;SDS011;1668;49.648;8.570;2023-09-30T08:25:48;7.83;;;3.40;;
3311;SDS011;1668;49.648;8.570;2023-09-30T08:28:15;13.37;;;4.53;;
3311;SDS011;1668;49.648;8.570;2023-09-30T08:30:42;9.17;;;4.00;;
3311;SDS011;1668;49.648;8.570;2023-09-30T08:33:11;9.53;;;4.00;;
3311;SDS011;1668;49.648;8.570;2023-09-30T08:35:37;8.37;;;4.10;;
3311;SDS011;1668;49.648;8.570;2023-09-30T08:38:04;13.83;;;4.40;;
3311;SDS011;1668;49.648;8.570;2023-09-30T08:40:31;11.30;;;4.60;;
3311;SDS011;1668;49.648;8.570;2023-09-30T08:42:58;11.83;;;4.73;;
3311;SDS011;1668;49.648;8.570;2023-09-30T08:45:27;9.53;;;3.83;;
3311;SDS011;1668;49.648;8.570;2023-09-30T08:47:54;10.93;;;4.60;;
3311;SDS011;1668;49.648;8.570;2023-09-30T08:50:23;9.43;;;4.10;;
3311;SDS011;1668;49.648;8.570;2023-09-30T08:52:50;14.93;;;4.27;;
3311;SDS011;1668;49.648;8.570;2023-09-30T08:55:17;9.30;;;4.33;;
3311;SDS011;1668;49.648;8.570;2023-09-30T08:57:44;11.93;;;4.90;;
3311;SDS011;1668;49.648;8.570;2023-09-30T09:00:14;18.10;;;4.30;;
3311;SDS011;1668;49.648;8.570;2023-09-30T09:02:41;12.00;;;4.10;;
3311;SDS011;1668;49.648;8.570;2023-09-30T09:05:09;10.17;;;4.20;;
3311;SDS011;1668;49.648;8.570;2023-09-30T09:07:37;12.33;;;3.70;;
3311;SDS011;1668;49.648;8.570;2023-09-30T09:10:05;11.30;;;3.87;;
3311;SDS011;1668;49.648;8.570;2023-09-30T09:12:33;11.60;;;4.53;;
3311;SDS011;1668;49.648;8.570;2023-09-30T09:15:01;10.53;;;3.90;;
3311;SDS011;1668;49.648;8.570;2023-09-30T09:17:41;8.33;;;3.90;;
3311;SDS011;1668;49.648;8.570;2023-09-30T09:20:09;12.97;;;4.60;;
3311;SDS011;1668;49.648;8.570;2023-09-30T09:22:40;11.33;;;4.10;;
3311;SDS011;1668;49.648;8.570;2023-09-30T09:25:08;13.07;;;3.60;;
3311;SDS011;1668;49.648;8.570;2023-09-30T09:27:36;7.50;;;3.20;;
3311;SDS011;1668;49.648;8.570;2023-09-30T09:30:16;7.73;;;3.60;;
3311;SDS011;1668;49.648;8.570;2023-09-30T09:35:35;6.50;;;3.83;;
3311;SDS011;1668;49.648;8.570;2023-09-30T09:38:03;8.47;;;3.30;;
3311;SDS011;1668;49.648;8.570;2023-09-30T09:40:31;10.33;;;4.17;;
3311;SDS011;1668;49.648;8.570;2023-09-30T09:42:59;8.07;;;3.77;;
3311;SDS011;1668;49.648;8.570;2023-09-30T09:45:29;9.77;;;3.30;;
3311;SDS011;1668;49.648;8.570;2023-09-30T09:47:58;9.70;;;4.00;;
3311;SDS011;1668;49.648;8.570;2023-09-30T09:50:25;6.80;;;3.70;;
3311;SDS011;1668;49.648;8.570;2023-09-30T09:52:53;10.73;;;4.00;;
3311;SDS011;1668;49.648;8.570;2023-09-30T09:55:23;7.37;;;3.60;;
3311;SDS011;1668;49.648;8.570;2023-09-30T09:57:50;7.33;;;3.73;;
3311;SDS011;1668;49.648;8.570;2023-09-30T10:00:18;12.30;;;3.77;;
3311;SDS011;1668;49.648;8.570;2023-09-30T10:02:45;7.83;;;3.77;;
3311;SDS011;1668;49.648;8.570;2023-09-30T10:05:13;7.17;;;4.00;;
3311;SDS011;1668;49.648;8.570;2023-09-30T10:07:42;8.33;;;4.10;;
3311;SDS011;1668;49.648;8.570;2023-09-30T10:10:13;9.73;;;4.40;;
3311;SDS011;1668;49.648;8.570;2023-09-30T10:12:44;11.23;;;3.93;;
3311;SDS011;1668;49.648;8.570;2023-09-30T10:18:09;8.63;;;4.40;;
3311;SDS011;1668;49.648;8.570;2023-09-30T10:20:37;7.23;;;3.93;;
3311;SDS011;1668;49.648;8.570;2023-09-30T10:23:21;9.70;;;5.10;;
3311;SDS011;1668;49.648;8.570;2023-09-30T10:25:52;9.20;;;4.00;;
3311;SDS011;1668;49.648;8.570;2023-09-30T10:28:44;8.23;;;4.57;;
3311;SDS011;1668;49.648;8.570;2023-09-30T10:31:15;9.47;;;4.00;;
3311;SDS011;1668;49.648;8.570;2023-09-30T10:36:44;7.00;;;4.03;;
3311;SDS011;1668;49.648;8.570;2023-09-30T10:39:12;6.73;;;3.57;;
3311;SDS011;1668;49.648;8.570;2023-09-30T10:41:48;42.93;;;8.23;;
3311;SDS011;1668;49.648;8.570;2023-09-30T10:44:35;20.63;;;4.87;;
3311;SDS011;1668;49.648;8.570;2023-09-30T10:50:01;6.80;;;4.07;;
3311;SDS011;1668;49.648;8.570;2023-09-30T10:52:29;8.30;;;4.27;;
3311;SDS011;1668;49.648;8.570;2023-09-30T10:55:01;6.37;;;3.27;;
3311;SDS011;1668;49.648;8.570;2023-09-30T10:57:30;9.23;;;4.60;;
3311;SDS011;1668;49.648;8.570;2023-09-30T11:00:08;7.87;;;3.70;;
3311;SDS011;1668;49.648;8.570;2023-09-30T11:02:47;9.60;;;5.17;;
3311;SDS011;1668;49.648;8.570;2023-09-30T11:05:16;11.50;;;5.40;;
3311;SDS011;1668;49.648;8.570;2023-09-30T11:07:43;9.67;;;4.77;;
3311;SDS011;1668;49.648;8.570;2023-09-30T11:10:15;10.80;;;4.33;;
3311;SDS011;1668;49.648;8.570;2023-09-30T11:12:52;7.47;;;3.60;;
3311;SDS011;1668;49.648;8.570;2023-09-30T11:15:21;7.67;;;4.00;;
3311;SDS011;1668;49.648;8.570;2023-09-30T11:17:49;6.50;;;3.70;;
3311;SDS011;1668;49.648;8.570;2023-09-30T11:20:16;10.63;;;4.37;;
3311;SDS011;1668;49.648;8.570;2023-09-30T11:22:44;10.37;;;4.37;;
3311;SDS011;1668;49.648;8.570;2023-09-30T11:25:15;10.03;;;3.47;;
3311;SDS011;1668;49.648;8.570;2023-09-30T11:27:43;8.93;;;4.43;;
3311;SDS011;1668;49.648;8.570;2023-09-30T11:30:10;9.03;;;3.70;;
3311;SDS011;1668;49.648;8.570;2023-09-30T11:32:39;9.20;;;4.00;;
3311;SDS011;1668;49.648;8.570;2023-09-30T11:35:15;8.87;;;4.00;;
3311;SDS011;1668;49.648;8.570;2023-09-30T11:37:48;9.60;;;4.20;;
3311;SDS011;1668;49.648;8.570;2023-09-30T11:40:17;10.40;;;4.03;;
3311;SDS011;1668;49.648;8.570;2023-09-30T11:45:37;11.77;;;4.23;;
3311;SDS011;1668;49.648;8.570;2023-09-30T11:48:16;8.00;;;4.20;;
3311;SDS011;1668;49.648;8.570;2023-09-30T11:50:45;8.03;;;3.77;;
3311;SDS011;1668;49.648;8.570;2023-09-30T11:53:15;11.67;;;4.60;;
3311;SDS011;1668;49.648;8.570;2023-09-30T11:55:43;7.90;;;4.10;;
3311;SDS011;1668;49.648;8.570;2023-09-30T11:58:11;7.13;;;4.57;;
3311;SDS011;1668;49.648;8.570;2023-09-30T12:00:43;8.00;;;4.43;;
3311;SDS011;1668;49.648;8.570;2023-09-30T12:03:10;9.50;;;4.80;;
3311;SDS011;1668;49.648;8.570;2023-09-30T12:05:38;10.07;;;4.70;;
3311;SDS011;1668;49.648;8.570;2023-09-30T12:08:05;10.60;;;4.83;;
3311;SDS011;1668;49.648;8.570;2023-09-30T12:10:33;10.20;;;4.70;;
3311;SDS011;1668;49.648;8.570;2023-09-30T12:12:59;10.13;;;4.60;;
3311;SDS011;1668;49.648;8.570;2023-09-30T12:15:26;11.37;;;4.73;;
3311;SDS011;1668;49.648;8.570;2023-09-30T12:17:53;13.50;;;5.10;;
3311;SDS011;1668;49.648;8.570;2023-09-30T12:20:20;8.47;;;4.13;;
3311;SDS011;1668;49.648;8.570;2023-09-30T12:22:49;7.07;;;4.10;;
3311;SDS011;1668;49.648;8.570;2023-09-30T12:25:16;7.90;;;4.13;;
3311;SDS011;1668;49.648;8.570;2023-09-30T12:27:46;11.60;;;5.40;;
3311;SDS011;1668;49.648;8.570;2023-09-30T12:30:13;10.70;;;4.87;;
3311;SDS011;1668;49.648;8.570;2023-09-30T12:32:41;11.13;;;5.33;;
3311;SDS011;1668;49.648;8.570;2023-09-30T12:35:08;10.23;;;4.60;;
3311;SDS011;1668;49.648;8.570;2023-09-30T12:37:35;8.40;;;4.20;;
3311;SDS011;1668;49.648;8.570;2023-09-30T12:40:05;8.87;;;4.20;;
3311;SDS011;1668;49.648;8.570;2023-09-30T12:42:33;9.77;;;4.40;;
3311;SDS011;1668;49.648;8.570;2023-09-30T12:45:00;10.23;;;4.47;;
3311;SDS011;1668;49.648;8.570;2023-09-30T12:47:28;8.13;;;4.00;;
3311;SDS011;1668;49.648;8.570;2023-09-30T12:49:55;11.00;;;4.00;;
3311;SDS011;1668;49.648;8.570;2023-09-30T12:52:22;10.83;;;4.57;;
3311;SDS011;1668;49.648;8.570;2023-09-30T12:54:50;9.20;;;4.17;;
3311;SDS011;1668;49.648;8.570;2023-09-30T12:57:18;7.00;;;4.20;;
3311;SDS011;1668;49.648;8.570;2023-09-30T12:59:45;10.83;;;4.30;;
3311;SDS011;1668;49.648;8.570;2023-09-30T13:02:14;7.40;;;3.83;;
3311;SDS011;1668;49.648;8.570;2023-09-30T13:04:43;8.10;;;4.40;;
3311;SDS011;1668;49.648;8.570;2023-09-30T13:07:10;10.13;;;4.73;;
3311;SDS011;1668;49.648;8.570;2023-09-30T13:09:37;8.73;;;4.37;;
3311;SDS011;1668;49.648;8.570;2023-09-30T13:12:04;9.00;;;4.97;;
3311;SDS011;1668;49.648;8.570;2023-09-30T13:14:33;13.00;;;5.27;;
3311;SDS011;1668;49.648;8.570;2023-09-30T13:17:00;10.93;;;5.10;;
3311;SDS011;1668;49.648;8.570;2023-09-30T13:19:28;9.57;;;4.77;;
3311;SDS011;1668;49.648;8.570;2023-09-30T13:21:58;10.53;;;5.10;;
3311;SDS011;1668;49.648;8.570;2023-09-30T13:24:25;8.27;;;4.27;;
3311;SDS011;1668;49.648;8.570;2023-09-30T13:26:52;14.17;;;4.37;;
3311;SDS011;1668;49.648;8.570;2023-09-30T13:29:19;10.03;;;4.90;;
3311;SDS011;1668;49.648;8.570;2023-09-30T13:31:47;9.60;;;4.97;;
3311;SDS011;1668;49.648;8.570;2023-09-30T13:34:14;8.40;;;4.73;;
3311;SDS011;1668;49.648;8.570;2023-09-30T13:36:41;9.03;;;4.70;;
3311;SDS011;1668;49.648;8.570;2023-09-30T13:39:08;9.60;;;4.40;;
3311;SDS011;1668;49.648;8.570;2023-09-30T13:41:38;13.03;;;6.13;;
3311;SDS011;1668;49.648;8.570;2023-09-30T13:44:05;10.70;;;5.30;;
3311;SDS011;1668;49.648;8.570;2023-09-30T13:46:33;11.03;;;5.30;;
3311;SDS011;1668;49.648;8.570;2023-09-30T13:49:01;10.60;;;5.03;;
3311;SDS011;1668;49.648;8.570;2023-09-30T13:51:29;11.03;;;5.50;;
3311;SDS011;1668;49.648;8.570;2023-09-30T13:53:55;10.53;;;4.87;;
3311;SDS011;1668;49.648;8.570;2023-09-30T13:56:22;10.37;;;4.90;;
3311;SDS011;1668;49.648;8.570;2023-09-30T13:58:49;13.30;;;5.47;;
3311;SDS011;1668;49.648;8.570;2023-09-30T14:01:17;8.43;;;4.53;;
3311;SDS011;1668;49.648;8.570;2023-09-30T14:03:45;10.93;;;4.63;;
3311;SDS011;1668;49.648;8.570;2023-09-30T14:06:13;11.10;;;4.80;;
3311;SDS011;1668;49.648;8.570;2023-09-30T14:08:40;14.80;;;5.40;;
3311;SDS011;1668;49.648;8.570;2023-09-30T14:11:08;8.93;;;4.90;;
3311;SDS011;1668;49.648;8.570;2023-09-30T14:13:36;7.23;;;4.33;;
3311;SDS011;1668;49.648;8.570;2023-09-30T14:16:04;9.20;;;5.00;;
3311;SDS011;1668;49.648;8.570;2023-09-30T14:18:31;9.73;;;4.73;;
3311;SDS011;1668;49.648;8.570;2023-09-30T14:20:58;8.43;;;4.47;;
3311;SDS011;1668;49.648;8.570;2023-09-30T14:23:27;8.67;;;4.83;;
3311;SDS011;1668;49.648;8.570;2023-09-30T14:25:55;12.70;;;5.67;;
3311;SDS011;1668;49.648;8.570;2023-09-30T14:28:22;11.13;;;4.93;;
3311;SDS011;1668;49.648;8.570;2023-09-30T14:30:48;8.87;;;5.20;;
3311;SDS011;1668;49.648;8.570;2023-09-30T14:33:16;11.70;;;5.20;;
3311;SDS011;1668;49.648;8.570;2023-09-30T14:35:44;8.37;;;4.77;;
3311;SDS011;1668;49.648;8.570;2023-09-30T14:38:11;7.80;;;4.17;;
3311;SDS011;1668;49.648;8.570;2023-09-30T14:40:39;9.37;;;5.10;;
3311;SDS011;1668;49.648;8.570;2023-09-30T14:43:07;12.80;;;5.40;;
3311;SDS011;1668;49.648;8.570;2023-09-30T14:45:36;11.63;;;5.50;;
3311;SDS011;1668;49.648;8.570;2023-09-30T14:48:04;10.30;;;5.13;;
3311;SDS011;1668;49.648;8.570;2023-09-30T14:50:32;11.23;;;5.60;;
3311;SDS011;1668;49.648;8.570;2023-09-30T14:52:58;9.17;;;5.10;;
3311;SDS011;1668;49.648;8.570;2023-09-30T14:55:25;8.30;;;4.60;;
3311;SDS011;1668;49.648;8.570;2023-09-30T14:57:53;12.40;;;5.20;;
3311;SDS011;1668;49.648;8.570;2023-09-30T15:00:20;10.27;;;5.30;;
3311;SDS011;1668;49.648;8.570;2023-09-30T15:02:49;9.93;;;5.43;;
3311;SDS011;1668;49.648;8.570;2023-09-30T15:05:16;10.13;;;5.23;;
3311;SDS011;1668;49.648;8.570;2023-09-30T15:07:43;10.10;;;4.90;;
3311;SDS011;1668;49.648;8.570;2023-09-30T15:10:10;9.97;;;4.90;;
3311;SDS011;1668;49.648;8.570;2023-09-30T15:12:37;9.67;;;4.83;;
3311;SDS011;1668;49.648;8.570;2023-09-30T15:15:06;7.73;;;4.50;;
3311;SDS011;1668;49.648;8.570;2023-09-30T15:17:34;8.40;;;4.87;;
3311;SDS011;1668;49.648;8.570;2023-09-30T15:20:00;9.73;;;4.67;;
3311;SDS011;1668;49.648;8.570;2023-09-30T15:22:27;11.50;;;5.80;;
3311;SDS011;1668;49.648;8.570;2023-09-30T15:24:54;12.03;;;5.30;;
3311;SDS011;1668;49.648;8.570;2023-09-30T15:27:21;11.10;;;5.40;;
3311;SDS011;1668;49.648;8.570;2023-09-30T15:29:50;9.47;;;4.53;;